sensor_id;sensor_type;location;lat;lon;timestamp;P1;durP1;ratioP1;P2;durP2;ratioP2
61038;SDS011;46919;45.816;3.104;2023-11-22T00:00:51;2.97;;;2.30;;
61038;SDS011;46919;45.816;3.104;2023-11-22T00:03:17;2.78;;;2.17;;
61038;SDS011;46919;45.816;3.104;2023-11-22T00:05:42;4.20;;;2.40;;
61038;SDS011;46919;45.816;3.104;2023-11-22T00:08:08;4.70;;;2.35;;
61038;SDS011;46919;45.816;3.104;2023-11-22T00:10:33;7.55;;;2.38;;
61038;SDS011;46919;45.816;3.104;2023-11-22T00:12:59;4.25;;;2.38;;
61038;SDS011;46919;45.816;3.104;2023-11-22T00:15:25;2.35;;;1.92;;
61038;SDS011;46919;45.816;3.104;2023-11-22T00:17:50;3.47;;;2.30;;
61038;SDS011;46919;45.816;3.104;2023-11-22T00:20:16;2.78;;;2.42;;
61038;SDS011;46919;45.816;3.104;2023-11-22T00:22:42;2.83;;;2.38;;
61038;SDS011;46919;45.816;3.104;2023-11-22T00:25:10;2.60;;;2.38;;
61038;SDS011;46919;45.816;3.104;2023-11-22T00:27:38;2.47;;;1.98;;
61038;SDS011;46919;45.816;3.104;2023-11-22T00:30:04;1.92;;;1.73;;
61038;SDS011;46919;45.816;3.104;2023-11-22T00:32:30;2.33;;;2.13;;
61038;SDS011;46919;45.816;3.104;2023-11-22T00:34:55;2.72;;;2.25;;
61038;SDS011;46919;45.816;3.104;2023-11-22T00:37:21;2.40;;;2.20;;
61038;SDS011;46919;45.816;3.104;2023-11-22T00:39:46;2.85;;;2.17;;
61038;SDS011;46919;45.816;3.104;2023-11-22T00:42:12;3.08;;;2.13;;
61038;SDS011;46919;45.816;3.104;2023-11-22T00:44:37;4.07;;;2.08;;
61038;SDS011;46919;45.816;3.104;2023-11-22T00:47:03;2.42;;;2.10;;
61038;SDS011;46919;45.816;3.104;2023-11-22T00:49:28;2.95;;;2.30;;
61038;SDS011;46919;45.816;3.104;2023-11-22T00:51:54;2.20;;;2.00;;
61038;SDS011;46919;45.816;3.104;2023-11-22T00:54:19;2.90;;;2.25;;
61038;SDS011;46919;45.816;3.104;2023-11-22T00:56:45;3.30;;;2.15;;
61038;SDS011;46919;45.816;3.104;2023-11-22T00:59:11;2.53;;;2.25;;
61038;SDS011;46919;45.816;3.104;2023-11-22T01:01:36;3.58;;;2.42;;
61038;SDS011;46919;45.816;3.104;2023-11-22T01:04:02;3.92;;;2.00;;
61038;SDS011;46919;45.816;3.104;2023-11-22T01:06:27;3.75;;;2.30;;
61038;SDS011;46919;45.816;3.104;2023-11-22T01:08:54;3.53;;;2.42;;
61038;SDS011;46919;45.816;3.104;2023-11-22T01:11:19;2.80;;;2.25;;
61038;SDS011;46919;45.816;3.104;2023-11-22T01:13:45;3.97;;;2.20;;
61038;SDS011;46919;45.816;3.104;2023-11-22T01:16:11;3.25;;;2.17;;
61038;SDS011;46919;45.816;3.104;2023-11-22T01:18:38;4.25;;;2.47;;
61038;SDS011;46919;45.816;3.104;2023-11-22T01:21:03;6.05;;;2.58;;
61038;SDS011;46919;45.816;3.104;2023-11-22T01:23:29;4.07;;;2.50;;
61038;SDS011;46919;45.816;3.104;2023-11-22T01:25:58;3.10;;;2.50;;
61038;SDS011;46919;45.816;3.104;2023-11-22T01:28:24;3.38;;;2.42;;
61038;SDS011;46919;45.816;3.104;2023-11-22T01:30:52;2.55;;;2.00;;
61038;SDS011;46919;45.816;3.104;2023-11-22T01:33:20;4.22;;;2.72;;
61038;SDS011;46919;45.816;3.104;2023-11-22T01:35:46;4.45;;;2.60;;
61038;SDS011;46919;45.816;3.104;2023-11-22T01:38:12;5.97;;;1.98;;
61038;SDS011;46919;45.816;3.104;2023-11-22T01:40:43;2.45;;;2.15;;
61038;SDS011;46919;45.816;3.104;2023-11-22T01:43:19;3.97;;;2.33;;
61038;SDS011;46919;45.816;3.104;2023-11-22T01:45:45;4.45;;;2.20;;
61038;SDS011;46919;45.816;3.104;2023-11-22T01:48:11;5.30;;;2.40;;
61038;SDS011;46919;45.816;3.104;2023-11-22T01:50:37;3.63;;;2.42;;
61038;SDS011;46919;45.816;3.104;2023-11-22T01:53:06;3.70;;;2.15;;
61038;SDS011;46919;45.816;3.104;2023-11-22T01:55:32;3.45;;;2.50;;
61038;SDS011;46919;45.816;3.104;2023-11-22T01:57:59;2.80;;;2.38;;
61038;SDS011;46919;45.816;3.104;2023-11-22T02:00:24;3.28;;;2.67;;
61038;SDS011;46919;45.816;3.104;2023-11-22T02:02:53;3.72;;;3.08;;
61038;SDS011;46919;45.816;3.104;2023-11-22T02:05:18;3.90;;;3.00;;
61038;SDS011;46919;45.816;3.104;2023-11-22T02:07:43;3.65;;;2.50;;
61038;SDS011;46919;45.816;3.104;2023-11-22T02:10:09;4.50;;;2.65;;
61038;SDS011;46919;45.816;3.104;2023-11-22T02:12:35;3.35;;;2.80;;
61038;SDS011;46919;45.816;3.104;2023-11-22T02:15:00;4.43;;;3.28;;
61038;SDS011;46919;45.816;3.104;2023-11-22T02:17:28;3.25;;;2.60;;
61038;SDS011;46919;45.816;3.104;2023-11-22T02:19:54;3.80;;;2.85;;
61038;SDS011;46919;45.816;3.104;2023-11-22T02:22:19;3.97;;;2.80;;
61038;SDS011;46919;45.816;3.104;2023-11-22T02:24:44;4.55;;;3.10;;
61038;SDS011;46919;45.816;3.104;2023-11-22T02:27:10;5.40;;;3.10;;
61038;SDS011;46919;45.816;3.104;2023-11-22T02:29:36;4.13;;;3.20;;
61038;SDS011;46919;45.816;3.104;2023-11-22T02:32:01;4.88;;;3.30;;
61038;SDS011;46919;45.816;3.104;2023-11-22T02:34:27;4.28;;;3.25;;
61038;SDS011;46919;45.816;3.104;2023-11-22T02:36:52;6.05;;;3.47;;
61038;SDS011;46919;45.816;3.104;2023-11-22T02:39:17;5.70;;;3.53;;
61038;SDS011;46919;45.816;3.104;2023-11-22T02:41:43;5.55;;;3.55;;
61038;SDS011;46919;45.816;3.104;2023-11-22T02:44:09;6.25;;;3.92;;
61038;SDS011;46919;45.816;3.104;2023-11-22T02:46:35;6.20;;;3.58;;
61038;SDS011;46919;45.816;3.104;2023-11-22T02:49:01;6.70;;;3.90;;
61038;SDS011;46919;45.816;3.104;2023-11-22T02:51:26;5.88;;;3.78;;
61038;SDS011;46919;45.816;3.104;2023-11-22T02:53:53;5.63;;;3.70;;
61038;SDS011;46919;45.816;3.104;2023-11-22T02:56:19;5.28;;;3.67;;
61038;SDS011;46919;45.816;3.104;2023-11-22T02:58:44;5.50;;;4.20;;
61038;SDS011;46919;45.816;3.104;2023-11-22T03:01:10;8.15;;;4.20;;
61038;SDS011;46919;45.816;3.104;2023-11-22T03:03:36;5.50;;;4.38;;
61038;SDS011;46919;45.816;3.104;2023-11-22T03:06:01;5.93;;;4.15;;
61038;SDS011;46919;45.816;3.104;2023-11-22T03:08:27;4.90;;;3.97;;
61038;SDS011;46919;45.816;3.104;2023-11-22T03:10:53;5.68;;;3.83;;
61038;SDS011;46919;45.816;3.104;2023-11-22T03:13:18;5.93;;;4.07;;
61038;SDS011;46919;45.816;3.104;2023-11-22T03:15:44;6.13;;;4.60;;
61038;SDS011;46919;45.816;3.104;2023-11-22T03:18:09;9.23;;;4.07;;
61038;SDS011;46919;45.816;3.104;2023-11-22T03:20:36;6.22;;;4.57;;
61038;SDS011;46919;45.816;3.104;2023-11-22T03:23:02;5.43;;;4.30;;
61038;SDS011;46919;45.816;3.104;2023-11-22T03:25:28;6.95;;;4.10;;
61038;SDS011;46919;45.816;3.104;2023-11-22T03:27:54;7.18;;;4.43;;
61038;SDS011;46919;45.816;3.104;2023-11-22T03:30:19;7.57;;;4.60;;
61038;SDS011;46919;45.816;3.104;2023-11-22T03:32:45;7.20;;;4.35;;
61038;SDS011;46919;45.816;3.104;2023-11-22T03:35:11;7.55;;;4.18;;
61038;SDS011;46919;45.816;3.104;2023-11-22T03:37:37;5.50;;;3.72;;
61038;SDS011;46919;45.816;3.104;2023-11-22T03:40:03;7.97;;;4.28;;
61038;SDS011;46919;45.816;3.104;2023-11-22T03:42:29;6.65;;;4.22;;
61038;SDS011;46919;45.816;3.104;2023-11-22T03:44:54;6.78;;;4.30;;
61038;SDS011;46919;45.816;3.104;2023-11-22T03:47:20;6.85;;;4.35;;
61038;SDS011;46919;45.816;3.104;2023-11-22T03:49:45;7.32;;;4.30;;
61038;SDS011;46919;45.816;3.104;2023-11-22T03:52:11;5.03;;;3.83;;
61038;SDS011;46919;45.816;3.104;2023-11-22T03:54:37;5.70;;;3.78;;
61038;SDS011;46919;45.816;3.104;2023-11-22T03:57:03;7.05;;;3.75;;
61038;SDS011;46919;45.816;3.104;2023-11-22T03:59:29;4.10;;;3.03;;
61038;SDS011;46919;45.816;3.104;2023-11-22T04:01:54;4.28;;;3.55;;
61038;SDS011;46919;45.816;3.104;2023-11-22T04:04:20;5.50;;;3.65;;
61038;SDS011;46919;45.816;3.104;2023-11-22T04:06:46;4.80;;;3.40;;
61038;SDS011;46919;45.816;3.104;2023-11-22T04:09:11;3.78;;;3.08;;
61038;SDS011;46919;45.816;3.104;2023-11-22T04:11:42;5.70;;;3.00;;
61038;SDS011;46919;45.816;3.104;2023-11-22T04:14:07;6.20;;;3.15;;
61038;SDS011;46919;45.816;3.104;2023-11-22T04:16:33;3.10;;;2.70;;
61038;SDS011;46919;45.816;3.104;2023-11-22T04:18:58;4.57;;;2.15;;
61038;SDS011;46919;45.816;3.104;2023-11-22T04:21:24;3.67;;;2.05;;
61038;SDS011;46919;45.816;3.104;2023-11-22T04:23:49;3.53;;;2.20;;
61038;SDS011;46919;45.816;3.104;2023-11-22T04:26:15;4.35;;;2.45;;
61038;SDS011;46919;45.816;3.104;2023-11-22T04:28:41;5.95;;;2.67;;
61038;SDS011;46919;45.816;3.104;2023-11-22T04:31:06;4.47;;;2.03;;
61038;SDS011;46919;45.816;3.104;2023-11-22T04:33:33;3.47;;;2.15;;
61038;SDS011;46919;45.816;3.104;2023-11-22T04:35:59;2.72;;;2.20;;
61038;SDS011;46919;45.816;3.104;2023-11-22T04:38:24;4.32;;;2.20;;
61038;SDS011;46919;45.816;3.104;2023-11-22T04:40:50;3.78;;;2.50;;
61038;SDS011;46919;45.816;3.104;2023-11-22T04:43:15;3.28;;;2.00;;
61038;SDS011;46919;45.816;3.104;2023-11-22T04:45:40;3.63;;;2.38;;
61038;SDS011;46919;45.816;3.104;2023-11-22T04:48:06;3.95;;;2.40;;
61038;SDS011;46919;45.816;3.104;2023-11-22T04:50:32;3.38;;;2.20;;
61038;SDS011;46919;45.816;3.104;2023-11-22T04:52:57;3.95;;;2.72;;
61038;SDS011;46919;45.816;3.104;2023-11-22T04:55:23;3.38;;;2.30;;
61038;SDS011;46919;45.816;3.104;2023-11-22T04:57:48;2.97;;;1.83;;
61038;SDS011;46919;45.816;3.104;2023-11-22T05:00:14;3.17;;;2.10;;
61038;SDS011;46919;45.816;3.104;2023-11-22T05:02:40;2.90;;;2.03;;
61038;SDS011;46919;45.816;3.104;2023-11-22T05:05:06;3.08;;;1.92;;
61038;SDS011;46919;45.816;3.104;2023-11-22T05:07:32;5.95;;;2.10;;
61038;SDS011;46919;45.816;3.104;2023-11-22T05:09:57;4.38;;;2.25;;
61038;SDS011;46919;45.816;3.104;2023-11-22T05:12:22;3.00;;;1.75;;
61038;SDS011;46919;45.816;3.104;2023-11-22T05:14:49;5.70;;;2.28;;
61038;SDS011;46919;45.816;3.104;2023-11-22T05:17:14;2.45;;;1.65;;
61038;SDS011;46919;45.816;3.104;2023-11-22T05:19:40;5.07;;;2.40;;
61038;SDS011;46919;45.816;3.104;2023-11-22T05:22:05;4.47;;;2.22;;
61038;SDS011;46919;45.816;3.104;2023-11-22T05:24:31;3.03;;;2.13;;
61038;SDS011;46919;45.816;3.104;2023-11-22T05:26:56;2.75;;;1.98;;
61038;SDS011;46919;45.816;3.104;2023-11-22T05:29:21;3.33;;;2.25;;
61038;SDS011;46919;45.816;3.104;2023-11-22T05:31:47;4.22;;;2.40;;
61038;SDS011;46919;45.816;3.104;2023-11-22T05:34:13;2.88;;;2.10;;
61038;SDS011;46919;45.816;3.104;2023-11-22T05:36:39;3.28;;;1.77;;
61038;SDS011;46919;45.816;3.104;2023-11-22T05:39:05;4.97;;;2.08;;
61038;SDS011;46919;45.816;3.104;2023-11-22T05:41:30;3.47;;;2.00;;
61038;SDS011;46919;45.816;3.104;2023-11-22T05:43:56;4.30;;;2.10;;
61038;SDS011;46919;45.816;3.104;2023-11-22T05:46:22;2.20;;;1.90;;
61038;SDS011;46919;45.816;3.104;2023-11-22T05:48:49;4.25;;;2.30;;
61038;SDS011;46919;45.816;3.104;2023-11-22T05:51:18;4.35;;;1.80;;
61038;SDS011;46919;45.816;3.104;2023-11-22T05:53:44;2.50;;;1.88;;
61038;SDS011;46919;45.816;3.104;2023-11-22T05:56:10;2.70;;;2.00;;
61038;SDS011;46919;45.816;3.104;2023-11-22T05:58:36;4.63;;;2.05;;
61038;SDS011;46919;45.816;3.104;2023-11-22T06:01:03;2.15;;;1.90;;
61038;SDS011;46919;45.816;3.104;2023-11-22T06:03:32;2.75;;;1.63;;
61038;SDS011;46919;45.816;3.104;2023-11-22T06:05:58;3.53;;;2.20;;
61038;SDS011;46919;45.816;3.104;2023-11-22T06:08:24;3.50;;;1.90;;
61038;SDS011;46919;45.816;3.104;2023-11-22T06:10:49;2.47;;;1.90;;
61038;SDS011;46919;45.816;3.104;2023-11-22T06:13:16;2.78;;;2.03;;
61038;SDS011;46919;45.816;3.104;2023-11-22T06:15:42;4.10;;;2.20;;
61038;SDS011;46919;45.816;3.104;2023-11-22T06:18:07;3.22;;;2.28;;
61038;SDS011;46919;45.816;3.104;2023-11-22T06:20:33;3.50;;;2.53;;
61038;SDS011;46919;45.816;3.104;2023-11-22T06:22:58;4.10;;;2.80;;
61038;SDS011;46919;45.816;3.104;2023-11-22T06:25:24;4.95;;;3.22;;
61038;SDS011;46919;45.816;3.104;2023-11-22T06:27:49;5.47;;;3.17;;
61038;SDS011;46919;45.816;3.104;2023-11-22T06:30:15;4.18;;;2.97;;
61038;SDS011;46919;45.816;3.104;2023-11-22T06:32:40;5.55;;;3.85;;
61038;SDS011;46919;45.816;3.104;2023-11-22T06:35:09;5.25;;;3.67;;
61038;SDS011;46919;45.816;3.104;2023-11-22T06:37:39;5.97;;;3.85;;
61038;SDS011;46919;45.816;3.104;2023-11-22T06:40:05;6.55;;;3.80;;
61038;SDS011;46919;45.816;3.104;2023-11-22T06:42:31;9.25;;;4.63;;
61038;SDS011;46919;45.816;3.104;2023-11-22T06:44:56;9.50;;;4.45;;
61038;SDS011;46919;45.816;3.104;2023-11-22T06:47:25;7.03;;;4.78;;
61038;SDS011;46919;45.816;3.104;2023-11-22T06:49:50;7.40;;;4.50;;
61038;SDS011;46919;45.816;3.104;2023-11-22T06:52:16;8.30;;;5.15;;
61038;SDS011;46919;45.816;3.104;2023-11-22T06:54:42;6.93;;;5.28;;
61038;SDS011;46919;45.816;3.104;2023-11-22T06:57:07;7.72;;;5.30;;
61038;SDS011;46919;45.816;3.104;2023-11-22T06:59:32;6.90;;;4.70;;
61038;SDS011;46919;45.816;3.104;2023-11-22T07:01:58;7.05;;;5.35;;
61038;SDS011;46919;45.816;3.104;2023-11-22T07:04:23;7.75;;;5.22;;
61038;SDS011;46919;45.816;3.104;2023-11-22T07:06:49;7.97;;;5.57;;
61038;SDS011;46919;45.816;3.104;2023-11-22T07:09:15;7.60;;;6.03;;
61038;SDS011;46919;45.816;3.104;2023-11-22T07:11:40;8.98;;;5.80;;
61038;SDS011;46919;45.816;3.104;2023-11-22T07:14:06;8.48;;;5.32;;
61038;SDS011;46919;45.816;3.104;2023-11-22T07:16:32;7.07;;;5.18;;
61038;SDS011;46919;45.816;3.104;2023-11-22T07:18:58;7.97;;;5.38;;
61038;SDS011;46919;45.816;3.104;2023-11-22T07:21:27;7.22;;;4.80;;
61038;SDS011;46919;45.816;3.104;2023-11-22T07:23:54;6.68;;;4.32;;
61038;SDS011;46919;45.816;3.104;2023-11-22T07:26:20;6.35;;;4.50;;
61038;SDS011;46919;45.816;3.104;2023-11-22T07:28:45;8.60;;;5.47;;
61038;SDS011;46919;45.816;3.104;2023-11-22T07:31:11;7.00;;;4.18;;
61038;SDS011;46919;45.816;3.104;2023-11-22T07:33:36;6.78;;;4.63;;
61038;SDS011;46919;45.816;3.104;2023-11-22T07:36:02;8.50;;;5.32;;
61038;SDS011;46919;45.816;3.104;2023-11-22T07:38:28;6.70;;;4.60;;
61038;SDS011;46919;45.816;3.104;2023-11-22T07:40:56;6.55;;;4.53;;
61038;SDS011;46919;45.816;3.104;2023-11-22T07:43:21;6.68;;;4.40;;
61038;SDS011;46919;45.816;3.104;2023-11-22T07:45:47;7.38;;;4.10;;
61038;SDS011;46919;45.816;3.104;2023-11-22T07:48:13;10.27;;;4.00;;
61038;SDS011;46919;45.816;3.104;2023-11-22T07:50:39;8.70;;;5.35;;
61038;SDS011;46919;45.816;3.104;2023-11-22T07:53:09;9.63;;;6.78;;
61038;SDS011;46919;45.816;3.104;2023-11-22T07:55:36;11.30;;;8.15;;
61038;SDS011;46919;45.816;3.104;2023-11-22T07:58:02;11.77;;;8.35;;
61038;SDS011;46919;45.816;3.104;2023-11-22T08:00:28;15.02;;;8.40;;
61038;SDS011;46919;45.816;3.104;2023-11-22T08:02:54;10.07;;;7.63;;
61038;SDS011;46919;45.816;3.104;2023-11-22T08:05:20;9.85;;;6.70;;
61038;SDS011;46919;45.816;3.104;2023-11-22T08:07:48;8.85;;;5.80;;
61038;SDS011;46919;45.816;3.104;2023-11-22T08:10:14;9.55;;;6.47;;
61038;SDS011;46919;45.816;3.104;2023-11-22T08:12:46;6.28;;;5.53;;
61038;SDS011;46919;45.816;3.104;2023-11-22T08:15:13;6.57;;;4.80;;
61038;SDS011;46919;45.816;3.104;2023-11-22T08:17:40;7.07;;;5.28;;
61038;SDS011;46919;45.816;3.104;2023-11-22T08:20:05;6.75;;;5.45;;
61038;SDS011;46919;45.816;3.104;2023-11-22T08:22:32;8.82;;;5.82;;
61038;SDS011;46919;45.816;3.104;2023-11-22T08:25:03;8.13;;;6.22;;
61038;SDS011;46919;45.816;3.104;2023-11-22T08:27:29;8.25;;;5.70;;
61038;SDS011;46919;45.816;3.104;2023-11-22T08:29:55;6.82;;;5.07;;
61038;SDS011;46919;45.816;3.104;2023-11-22T08:32:20;8.32;;;6.07;;
61038;SDS011;46919;45.816;3.104;2023-11-22T08:34:48;8.07;;;5.85;;
61038;SDS011;46919;45.816;3.104;2023-11-22T08:37:17;8.73;;;5.70;;
61038;SDS011;46919;45.816;3.104;2023-11-22T08:39:43;8.57;;;5.57;;
61038;SDS011;46919;45.816;3.104;2023-11-22T08:42:09;7.68;;;4.85;;
61038;SDS011;46919;45.816;3.104;2023-11-22T08:44:37;5.82;;;5.05;;
61038;SDS011;46919;45.816;3.104;2023-11-22T08:47:03;6.75;;;4.85;;
61038;SDS011;46919;45.816;3.104;2023-11-22T08:49:29;7.15;;;4.68;;
61038;SDS011;46919;45.816;3.104;2023-11-22T08:51:55;5.72;;;4.47;;
61038;SDS011;46919;45.816;3.104;2023-11-22T08:54:21;6.63;;;5.20;;
61038;SDS011;46919;45.816;3.104;2023-11-22T08:56:47;6.25;;;4.72;;
61038;SDS011;46919;45.816;3.104;2023-11-22T08:59:12;6.40;;;4.75;;
61038;SDS011;46919;45.816;3.104;2023-11-22T09:01:38;5.38;;;4.30;;
61038;SDS011;46919;45.816;3.104;2023-11-22T09:04:03;5.50;;;4.43;;
61038;SDS011;46919;45.816;3.104;2023-11-22T09:06:29;9.45;;;5.07;;
61038;SDS011;46919;45.816;3.104;2023-11-22T09:08:55;8.70;;;4.88;;
61038;SDS011;46919;45.816;3.104;2023-11-22T09:11:21;8.80;;;5.30;;
61038;SDS011;46919;45.816;3.104;2023-11-22T09:13:47;7.05;;;5.38;;
61038;SDS011;46919;45.816;3.104;2023-11-22T09:16:15;5.85;;;4.80;;
61038;SDS011;46919;45.816;3.104;2023-11-22T09:18:41;7.13;;;5.50;;
61038;SDS011;46919;45.816;3.104;2023-11-22T09:21:07;8.25;;;5.57;;
61038;SDS011;46919;45.816;3.104;2023-11-22T09:23:34;7.50;;;4.95;;
61038;SDS011;46919;45.816;3.104;2023-11-22T09:26:01;6.47;;;4.75;;
61038;SDS011;46919;45.816;3.104;2023-11-22T09:28:27;5.97;;;4.65;;
61038;SDS011;46919;45.816;3.104;2023-11-22T09:30:52;6.20;;;4.78;;
61038;SDS011;46919;45.816;3.104;2023-11-22T09:33:18;5.43;;;4.18;;
61038;SDS011;46919;45.816;3.104;2023-11-22T09:35:44;6.45;;;4.80;;
61038;SDS011;46919;45.816;3.104;2023-11-22T09:38:11;8.00;;;5.05;;
61038;SDS011;46919;45.816;3.104;2023-11-22T09:40:41;7.72;;;4.93;;
61038;SDS011;46919;45.816;3.104;2023-11-22T09:43:09;5.15;;;4.47;;
61038;SDS011;46919;45.816;3.104;2023-11-22T09:45:35;7.03;;;4.35;;
61038;SDS011;46919;45.816;3.104;2023-11-22T09:48:03;8.30;;;4.60;;
61038;SDS011;46919;45.816;3.104;2023-11-22T09:56:05;7.47;;;4.97;;
61038;SDS011;46919;45.816;3.104;2023-11-22T09:58:34;7.70;;;5.97;;
61038;SDS011;46919;45.816;3.104;2023-11-22T10:01:02;6.57;;;5.10;;
61038;SDS011;46919;45.816;3.104;2023-11-22T10:03:32;7.47;;;5.25;;
61038;SDS011;46919;45.816;3.104;2023-11-22T10:05:58;6.15;;;4.35;;
61038;SDS011;46919;45.816;3.104;2023-11-22T10:08:27;6.07;;;4.35;;
61038;SDS011;46919;45.816;3.104;2023-11-22T10:10:56;7.10;;;4.63;;
61038;SDS011;46919;45.816;3.104;2023-11-22T10:13:22;6.63;;;5.00;;
61038;SDS011;46919;45.816;3.104;2023-11-22T10:15:48;6.72;;;4.82;;
61038;SDS011;46919;45.816;3.104;2023-11-22T10:18:14;6.38;;;4.85;;
61038;SDS011;46919;45.816;3.104;2023-11-22T10:20:40;7.35;;;4.75;;
61038;SDS011;46919;45.816;3.104;2023-11-22T10:25:45;7.72;;;5.13;;
61038;SDS011;46919;45.816;3.104;2023-11-22T10:28:21;9.95;;;5.65;;
61038;SDS011;46919;45.816;3.104;2023-11-22T10:30:49;7.43;;;5.57;;
61038;SDS011;46919;45.816;3.104;2023-11-22T10:33:16;7.15;;;5.50;;
61038;SDS011;46919;45.816;3.104;2023-11-22T10:35:48;7.25;;;4.82;;
61038;SDS011;46919;45.816;3.104;2023-11-22T10:38:17;7.68;;;5.57;;
61038;SDS011;46919;45.816;3.104;2023-11-22T10:40:44;9.98;;;6.32;;
61038;SDS011;46919;45.816;3.104;2023-11-22T10:43:19;8.15;;;5.78;;
61038;SDS011;46919;45.816;3.104;2023-11-22T10:45:48;8.23;;;5.75;;
61038;SDS011;46919;45.816;3.104;2023-11-22T10:48:16;8.95;;;6.45;;
61038;SDS011;46919;45.816;3.104;2023-11-22T10:50:45;10.93;;;6.50;;
61038;SDS011;46919;45.816;3.104;2023-11-22T10:53:11;7.85;;;6.32;;
61038;SDS011;46919;45.816;3.104;2023-11-22T10:55:47;8.85;;;6.53;;
61038;SDS011;46919;45.816;3.104;2023-11-22T10:58:13;9.10;;;6.85;;
61038;SDS011;46919;45.816;3.104;2023-11-22T11:00:40;7.80;;;5.85;;
61038;SDS011;46919;45.816;3.104;2023-11-22T11:03:18;7.10;;;5.40;;
61038;SDS011;46919;45.816;3.104;2023-11-22T11:05:50;7.38;;;5.10;;
61038;SDS011;46919;45.816;3.104;2023-11-22T11:08:21;6.22;;;5.32;;
61038;SDS011;46919;45.816;3.104;2023-11-22T11:10:50;8.65;;;6.43;;
61038;SDS011;46919;45.816;3.104;2023-11-22T11:13:16;10.63;;;5.95;;
61038;SDS011;46919;45.816;3.104;2023-11-22T11:15:43;6.97;;;5.43;;
61038;SDS011;46919;45.816;3.104;2023-11-22T11:18:11;6.90;;;5.40;;
61038;SDS011;46919;45.816;3.104;2023-11-22T11:23:25;6.30;;;4.85;;
61038;SDS011;46919;45.816;3.104;2023-11-22T11:25:58;8.50;;;4.90;;
61038;SDS011;46919;45.816;3.104;2023-11-22T11:28:41;6.53;;;4.45;;
61038;SDS011;46919;45.816;3.104;2023-11-22T11:31:09;6.80;;;4.90;;
61038;SDS011;46919;45.816;3.104;2023-11-22T11:33:34;5.85;;;4.75;;
61038;SDS011;46919;45.816;3.104;2023-11-22T11:36:31;7.00;;;4.50;;
61038;SDS011;46919;45.816;3.104;2023-11-22T11:38:58;4.95;;;3.67;;
61038;SDS011;46919;45.816;3.104;2023-11-22T11:41:31;4.80;;;3.50;;
61038;SDS011;46919;45.816;3.104;2023-11-22T11:43:58;5.13;;;4.03;;
61038;SDS011;46919;45.816;3.104;2023-11-22T11:46:26;5.63;;;4.15;;
61038;SDS011;46919;45.816;3.104;2023-11-22T11:48:52;5.32;;;3.95;;
61038;SDS011;46919;45.816;3.104;2023-11-22T11:51:24;6.35;;;3.85;;
61038;SDS011;46919;45.816;3.104;2023-11-22T11:53:51;4.93;;;3.60;;
61038;SDS011;46919;45.816;3.104;2023-11-22T11:56:17;3.30;;;2.60;;
61038;SDS011;46919;45.816;3.104;2023-11-22T11:58:45;3.53;;;2.40;;
61038;SDS011;46919;45.816;3.104;2023-11-22T12:01:13;1.88;;;1.55;;
61038;SDS011;46919;45.816;3.104;2023-11-22T12:03:39;1.83;;;1.60;;
61038;SDS011;46919;45.816;3.104;2023-11-22T12:06:06;2.70;;;1.80;;
61038;SDS011;46919;45.816;3.104;2023-11-22T12:08:32;1.85;;;1.40;;
61038;SDS011;46919;45.816;3.104;2023-11-22T12:11:04;2.10;;;1.70;;
61038;SDS011;46919;45.816;3.104;2023-11-22T12:13:33;3.28;;;1.80;;
61038;SDS011;46919;45.816;3.104;2023-11-22T12:16:00;1.90;;;1.67;;
61038;SDS011;46919;45.816;3.104;2023-11-22T12:18:28;2.13;;;1.52;;
61038;SDS011;46919;45.816;3.104;2023-11-22T12:20:57;3.00;;;1.50;;
61038;SDS011;46919;45.816;3.104;2023-11-22T12:23:23;2.28;;;1.65;;
61038;SDS011;46919;45.816;3.104;2023-11-22T12:25:54;2.75;;;1.52;;
61038;SDS011;46919;45.816;3.104;2023-11-22T12:28:22;3.13;;;1.80;;
61038;SDS011;46919;45.816;3.104;2023-11-22T12:31:06;2.20;;;1.70;;
61038;SDS011;46919;45.816;3.104;2023-11-22T12:33:34;2.10;;;1.65;;
61038;SDS011;46919;45.816;3.104;2023-11-22T12:36:00;1.80;;;1.33;;
61038;SDS011;46919;45.816;3.104;2023-11-22T12:38:25;1.88;;;1.60;;
61038;SDS011;46919;45.816;3.104;2023-11-22T12:40:56;2.15;;;1.60;;
61038;SDS011;46919;45.816;3.104;2023-11-22T12:43:22;2.47;;;2.00;;
61038;SDS011;46919;45.816;3.104;2023-11-22T12:45:47;2.55;;;2.03;;
61038;SDS011;46919;45.816;3.104;2023-11-22T12:48:24;3.10;;;2.15;;
61038;SDS011;46919;45.816;3.104;2023-11-22T12:50:50;2.72;;;2.10;;
61038;SDS011;46919;45.816;3.104;2023-11-22T12:53:19;3.88;;;2.30;;
61038;SDS011;46919;45.816;3.104;2023-11-22T12:55:47;4.15;;;2.50;;
61038;SDS011;46919;45.816;3.104;2023-11-22T12:58:17;2.35;;;1.98;;
61038;SDS011;46919;45.816;3.104;2023-11-22T13:00:47;2.85;;;1.95;;
61038;SDS011;46919;45.816;3.104;2023-11-22T13:03:14;3.08;;;1.83;;
61038;SDS011;46919;45.816;3.104;2023-11-22T13:05:40;2.05;;;1.80;;
61038;SDS011;46919;45.816;3.104;2023-11-22T13:08:10;3.08;;;2.17;;
61038;SDS011;46919;45.816;3.104;2023-11-22T13:13:11;3.72;;;2.00;;
61038;SDS011;46919;45.816;3.104;2023-11-22T13:15:37;2.47;;;1.90;;
61038;SDS011;46919;45.816;3.104;2023-11-22T13:18:02;2.63;;;2.03;;
61038;SDS011;46919;45.816;3.104;2023-11-22T13:20:28;2.83;;;1.90;;
61038;SDS011;46919;45.816;3.104;2023-11-22T13:22:53;1.90;;;1.65;;
61038;SDS011;46919;45.816;3.104;2023-11-22T13:25:20;2.10;;;1.90;;
61038;SDS011;46919;45.816;3.104;2023-11-22T13:27:48;4.60;;;1.80;;
61038;SDS011;46919;45.816;3.104;2023-11-22T13:30:15;2.45;;;1.88;;
61038;SDS011;46919;45.816;3.104;2023-11-22T13:32:44;2.55;;;1.67;;
61038;SDS011;46919;45.816;3.104;2023-11-22T13:35:10;2.78;;;1.60;;
61038;SDS011;46919;45.816;3.104;2023-11-22T13:37:40;6.07;;;2.05;;
61038;SDS011;46919;45.816;3.104;2023-11-22T13:40:08;2.10;;;1.83;;
61038;SDS011;46919;45.816;3.104;2023-11-22T13:42:39;2.50;;;1.85;;
61038;SDS011;46919;45.816;3.104;2023-11-22T13:45:09;1.98;;;1.65;;
61038;SDS011;46919;45.816;3.104;2023-11-22T13:47:36;2.55;;;1.90;;
61038;SDS011;46919;45.816;3.104;2023-11-22T13:50:01;2.10;;;1.67;;
61038;SDS011;46919;45.816;3.104;2023-11-22T13:52:28;2.65;;;1.70;;
61038;SDS011;46919;45.816;3.104;2023-11-22T13:54:54;2.30;;;1.67;;
61038;SDS011;46919;45.816;3.104;2023-11-22T13:57:22;2.53;;;1.90;;
61038;SDS011;46919;45.816;3.104;2023-11-22T13:59:47;5.38;;;2.03;;
61038;SDS011;46919;45.816;3.104;2023-11-22T14:02:13;2.55;;;2.00;;
61038;SDS011;46919;45.816;3.104;2023-11-22T14:04:38;5.20;;;2.22;;
61038;SDS011;46919;45.816;3.104;2023-11-22T14:07:04;2.83;;;2.22;;
61038;SDS011;46919;45.816;3.104;2023-11-22T14:09:31;2.72;;;2.00;;
61038;SDS011;46919;45.816;3.104;2023-11-22T14:12:01;4.80;;;2.53;;
61038;SDS011;46919;45.816;3.104;2023-11-22T14:14:27;3.38;;;2.42;;
61038;SDS011;46919;45.816;3.104;2023-11-22T14:16:52;2.75;;;2.08;;
61038;SDS011;46919;45.816;3.104;2023-11-22T14:19:18;2.63;;;1.90;;
61038;SDS011;46919;45.816;3.104;2023-11-22T14:21:43;2.45;;;2.05;;
61038;SDS011;46919;45.816;3.104;2023-11-22T14:24:09;2.58;;;2.13;;
61038;SDS011;46919;45.816;3.104;2023-11-22T14:26:35;2.75;;;2.20;;
61038;SDS011;46919;45.816;3.104;2023-11-22T14:29:02;2.45;;;2.15;;
61038;SDS011;46919;45.816;3.104;2023-11-22T14:31:28;2.78;;;1.98;;
61038;SDS011;46919;45.816;3.104;2023-11-22T14:33:54;3.42;;;2.45;;
61038;SDS011;46919;45.816;3.104;2023-11-22T14:36:21;2.92;;;2.08;;
61038;SDS011;46919;45.816;3.104;2023-11-22T14:38:47;3.65;;;1.65;;
61038;SDS011;46919;45.816;3.104;2023-11-22T14:41:19;3.00;;;1.67;;
61038;SDS011;46919;45.816;3.104;2023-11-22T14:43:44;4.35;;;1.90;;
61038;SDS011;46919;45.816;3.104;2023-11-22T14:46:10;2.47;;;1.92;;
61038;SDS011;46919;45.816;3.104;2023-11-22T14:48:35;2.30;;;1.75;;
61038;SDS011;46919;45.816;3.104;2023-11-22T14:51:02;3.35;;;1.90;;
61038;SDS011;46919;45.816;3.104;2023-11-22T14:53:27;2.30;;;1.67;;
61038;SDS011;46919;45.816;3.104;2023-11-22T14:55:53;3.35;;;1.98;;
61038;SDS011;46919;45.816;3.104;2023-11-22T14:58:18;4.78;;;2.28;;